sensor_id;sensor_type;location;lat;lon;timestamp;P1;durP1;ratioP1;P2;durP2;ratioP2
75937;SDS011;64615;32.062;34.834;2023-11-21T00:00:00;5.38;;;1.10;;
75937;SDS011;64615;32.062;34.834;2023-11-21T00:02:26;8.07;;;1.60;;
75937;SDS011;64615;32.062;34.834;2023-11-21T00:04:55;4.88;;;1.23;;
75937;SDS011;64615;32.062;34.834;2023-11-21T00:07:20;5.18;;;1.10;;
75937;SDS011;64615;32.062;34.834;2023-11-21T00:09:46;7.90;;;1.30;;
75937;SDS011;64615;32.062;34.834;2023-11-21T00:12:12;5.63;;;1.45;;
75937;SDS011;64615;32.062;34.834;2023-11-21T00:14:39;7.20;;;1.20;;
75937;SDS011;64615;32.062;34.834;2023-11-21T00:17:04;7.63;;;1.67;;
75937;SDS011;64615;32.062;34.834;2023-11-21T00:19:31;6.82;;;1.23;;
75937;SDS011;64615;32.062;34.834;2023-11-21T00:21:57;7.00;;;1.30;;
75937;SDS011;64615;32.062;34.834;2023-11-21T00:24:23;4.25;;;1.05;;
75937;SDS011;64615;32.062;34.834;2023-11-21T00:26:50;4.20;;;0.95;;
75937;SDS011;64615;32.062;34.834;2023-11-21T00:29:16;5.95;;;1.20;;
75937;SDS011;64615;32.062;34.834;2023-11-21T00:31:43;7.45;;;1.33;;
75937;SDS011;64615;32.062;34.834;2023-11-21T00:34:09;6.03;;;1.30;;
75937;SDS011;64615;32.062;34.834;2023-11-21T00:36:36;2.75;;;0.95;;
75937;SDS011;64615;32.062;34.834;2023-11-21T00:39:01;4.43;;;1.30;;
75937;SDS011;64615;32.062;34.834;2023-11-21T00:41:27;4.70;;;1.20;;
75937;SDS011;64615;32.062;34.834;2023-11-21T00:43:53;6.75;;;1.27;;
75937;SDS011;64615;32.062;34.834;2023-11-21T00:46:20;6.03;;;1.20;;
75937;SDS011;64615;32.062;34.834;2023-11-21T00:48:46;6.18;;;1.08;;
75937;SDS011;64615;32.062;34.834;2023-11-21T00:51:12;4.68;;;1.08;;
75937;SDS011;64615;32.062;34.834;2023-11-21T00:53:37;6.40;;;1.27;;
75937;SDS011;64615;32.062;34.834;2023-11-21T00:56:04;5.80;;;1.00;;
75937;SDS011;64615;32.062;34.834;2023-11-21T00:58:30;6.28;;;1.02;;
75937;SDS011;64615;32.062;34.834;2023-11-21T01:00:56;4.57;;;0.88;;
75937;SDS011;64615;32.062;34.834;2023-11-21T01:03:21;4.25;;;1.00;;
75937;SDS011;64615;32.062;34.834;2023-11-21T01:05:47;5.38;;;1.20;;
75937;SDS011;64615;32.062;34.834;2023-11-21T01:08:15;4.50;;;0.90;;
75937;SDS011;64615;32.062;34.834;2023-11-21T01:10:41;5.22;;;1.00;;
75937;SDS011;64615;32.062;34.834;2023-11-21T01:13:06;5.55;;;0.98;;
75937;SDS011;64615;32.062;34.834;2023-11-21T01:15:32;4.45;;;0.90;;
75937;SDS011;64615;32.062;34.834;2023-11-21T01:18:01;4.10;;;0.98;;
75937;SDS011;64615;32.062;34.834;2023-11-21T01:20:28;6.25;;;1.10;;
75937;SDS011;64615;32.062;34.834;2023-11-21T01:22:54;4.38;;;0.90;;
75937;SDS011;64615;32.062;34.834;2023-11-21T01:25:20;6.15;;;1.10;;
75937;SDS011;64615;32.062;34.834;2023-11-21T01:27:46;10.77;;;1.30;;
75937;SDS011;64615;32.062;34.834;2023-11-21T01:30:12;6.75;;;1.30;;
75937;SDS011;64615;32.062;34.834;2023-11-21T01:32:38;5.38;;;1.10;;
75937;SDS011;64615;32.062;34.834;2023-11-21T01:35:04;5.00;;;1.05;;
75937;SDS011;64615;32.062;34.834;2023-11-21T01:37:31;3.40;;;0.85;;
75937;SDS011;64615;32.062;34.834;2023-11-21T01:39:58;3.83;;;0.90;;
75937;SDS011;64615;32.062;34.834;2023-11-21T01:42:24;7.00;;;1.20;;
75937;SDS011;64615;32.062;34.834;2023-11-21T01:44:50;5.60;;;1.20;;
75937;SDS011;64615;32.062;34.834;2023-11-21T01:47:16;6.28;;;1.10;;
75937;SDS011;64615;32.062;34.834;2023-11-21T01:49:45;4.40;;;1.00;;
75937;SDS011;64615;32.062;34.834;2023-11-21T01:52:11;4.40;;;1.08;;
75937;SDS011;64615;32.062;34.834;2023-11-21T01:54:38;4.53;;;0.95;;
75937;SDS011;64615;32.062;34.834;2023-11-21T01:57:05;6.50;;;1.10;;
75937;SDS011;64615;32.062;34.834;2023-11-21T01:59:35;4.82;;;1.02;;
75937;SDS011;64615;32.062;34.834;2023-11-21T02:02:03;4.57;;;1.17;;
75937;SDS011;64615;32.062;34.834;2023-11-21T02:04:32;5.70;;;1.10;;
75937;SDS011;64615;32.062;34.834;2023-11-21T02:06:59;5.78;;;1.15;;
75937;SDS011;64615;32.062;34.834;2023-11-21T02:09:25;3.83;;;0.90;;
75937;SDS011;64615;32.062;34.834;2023-11-21T02:11:58;4.03;;;1.13;;
75937;SDS011;64615;32.062;34.834;2023-11-21T02:14:27;2.63;;;0.80;;
75937;SDS011;64615;32.062;34.834;2023-11-21T02:16:53;5.00;;;1.02;;
75937;SDS011;64615;32.062;34.834;2023-11-21T02:19:21;4.55;;;1.10;;
75937;SDS011;64615;32.062;34.834;2023-11-21T02:21:54;5.13;;;0.93;;
75937;SDS011;64615;32.062;34.834;2023-11-21T02:24:24;4.20;;;0.88;;
75937;SDS011;64615;32.062;34.834;2023-11-21T02:26:50;6.63;;;1.13;;
75937;SDS011;64615;32.062;34.834;2023-11-21T02:29:20;4.22;;;1.00;;
75937;SDS011;64615;32.062;34.834;2023-11-21T02:31:55;4.22;;;0.88;;
75937;SDS011;64615;32.062;34.834;2023-11-21T02:34:21;3.42;;;1.00;;
75937;SDS011;64615;32.062;34.834;2023-11-21T02:36:49;4.97;;;1.00;;
75937;SDS011;64615;32.062;34.834;2023-11-21T02:39:16;8.38;;;1.08;;
75937;SDS011;64615;32.062;34.834;2023-11-21T02:41:43;5.38;;;1.08;;
75937;SDS011;64615;32.062;34.834;2023-11-21T02:44:09;5.18;;;0.98;;
75937;SDS011;64615;32.062;34.834;2023-11-21T02:46:35;4.90;;;0.88;;
75937;SDS011;64615;32.062;34.834;2023-11-21T02:49:02;6.63;;;1.13;;
75937;SDS011;64615;32.062;34.834;2023-11-21T02:51:28;5.13;;;1.00;;
75937;SDS011;64615;32.062;34.834;2023-11-21T02:53:54;6.13;;;1.10;;
75937;SDS011;64615;32.062;34.834;2023-11-21T02:56:23;3.60;;;0.88;;
75937;SDS011;64615;32.062;34.834;2023-11-21T02:58:50;7.22;;;1.05;;
75937;SDS011;64615;32.062;34.834;2023-11-21T03:01:16;6.07;;;1.10;;
75937;SDS011;64615;32.062;34.834;2023-11-21T03:03:42;4.65;;;1.10;;
75937;SDS011;64615;32.062;34.834;2023-11-21T03:06:07;4.85;;;1.05;;
75937;SDS011;64615;32.062;34.834;2023-11-21T03:08:34;5.95;;;1.10;;
75937;SDS011;64615;32.062;34.834;2023-11-21T03:11:00;4.18;;;1.02;;
75937;SDS011;64615;32.062;34.834;2023-11-21T03:13:28;4.40;;;1.10;;
75937;SDS011;64615;32.062;34.834;2023-11-21T03:15:54;3.90;;;0.88;;
75937;SDS011;64615;32.062;34.834;2023-11-21T03:18:21;5.18;;;1.10;;
75937;SDS011;64615;32.062;34.834;2023-11-21T03:20:52;7.43;;;1.20;;
75937;SDS011;64615;32.062;34.834;2023-11-21T03:23:18;4.70;;;1.10;;
75937;SDS011;64615;32.062;34.834;2023-11-21T03:25:44;2.63;;;0.90;;
75937;SDS011;64615;32.062;34.834;2023-11-21T03:28:09;6.20;;;1.20;;
75937;SDS011;64615;32.062;34.834;2023-11-21T03:30:35;5.35;;;1.17;;
75937;SDS011;64615;32.062;34.834;2023-11-21T03:33:00;3.83;;;1.00;;
75937;SDS011;64615;32.062;34.834;2023-11-21T03:35:26;4.55;;;1.10;;
75937;SDS011;64615;32.062;34.834;2023-11-21T03:37:52;8.70;;;1.10;;
75937;SDS011;64615;32.062;34.834;2023-11-21T03:40:17;5.20;;;1.00;;
75937;SDS011;64615;32.062;34.834;2023-11-21T03:42:43;4.43;;;0.88;;
75937;SDS011;64615;32.062;34.834;2023-11-21T03:45:08;3.42;;;0.95;;
75937;SDS011;64615;32.062;34.834;2023-11-21T03:47:34;4.40;;;1.00;;
75937;SDS011;64615;32.062;34.834;2023-11-21T03:50:00;6.00;;;1.13;;
75937;SDS011;64615;32.062;34.834;2023-11-21T03:52:26;4.32;;;1.05;;
75937;SDS011;64615;32.062;34.834;2023-11-21T03:54:53;5.43;;;1.05;;
75937;SDS011;64615;32.062;34.834;2023-11-21T03:57:20;7.03;;;1.40;;
75937;SDS011;64615;32.062;34.834;2023-11-21T03:59:46;6.45;;;1.10;;
75937;SDS011;64615;32.062;34.834;2023-11-21T04:02:11;5.10;;;1.20;;
75937;SDS011;64615;32.062;34.834;2023-11-21T04:04:37;9.15;;;1.98;;
75937;SDS011;64615;32.062;34.834;2023-11-21T04:07:04;8.63;;;1.30;;
75937;SDS011;64615;32.062;34.834;2023-11-21T04:09:30;7.47;;;1.10;;
75937;SDS011;64615;32.062;34.834;2023-11-21T04:11:56;4.07;;;1.00;;
75937;SDS011;64615;32.062;34.834;2023-11-21T04:14:22;8.68;;;1.45;;
75937;SDS011;64615;32.062;34.834;2023-11-21T04:16:48;9.98;;;1.42;;
75937;SDS011;64615;32.062;34.834;2023-11-21T04:19:14;5.35;;;1.27;;
75937;SDS011;64615;32.062;34.834;2023-11-21T04:21:40;9.57;;;1.73;;
75937;SDS011;64615;32.062;34.834;2023-11-21T04:24:06;7.70;;;1.35;;
75937;SDS011;64615;32.062;34.834;2023-11-21T04:26:32;6.43;;;1.20;;
75937;SDS011;64615;32.062;34.834;2023-11-21T04:28:58;6.80;;;1.40;;
75937;SDS011;64615;32.062;34.834;2023-11-21T04:31:23;5.07;;;1.05;;
75937;SDS011;64615;32.062;34.834;2023-11-21T04:33:49;6.03;;;1.20;;
75937;SDS011;64615;32.062;34.834;2023-11-21T04:36:15;6.70;;;1.35;;
75937;SDS011;64615;32.062;34.834;2023-11-21T04:38:40;5.00;;;1.30;;
75937;SDS011;64615;32.062;34.834;2023-11-21T04:41:06;4.63;;;1.25;;
75937;SDS011;64615;32.062;34.834;2023-11-21T04:43:32;5.93;;;1.27;;
75937;SDS011;64615;32.062;34.834;2023-11-21T04:45:58;5.63;;;1.60;;
75937;SDS011;64615;32.062;34.834;2023-11-21T04:48:24;7.13;;;1.35;;
75937;SDS011;64615;32.062;34.834;2023-11-21T04:50:50;5.93;;;1.33;;
75937;SDS011;64615;32.062;34.834;2023-11-21T04:53:16;7.35;;;1.42;;
75937;SDS011;64615;32.062;34.834;2023-11-21T04:55:42;6.03;;;1.25;;
75937;SDS011;64615;32.062;34.834;2023-11-21T04:58:09;5.03;;;1.40;;
75937;SDS011;64615;32.062;34.834;2023-11-21T05:00:35;4.47;;;1.30;;
75937;SDS011;64615;32.062;34.834;2023-11-21T05:03:03;5.65;;;1.42;;
75937;SDS011;64615;32.062;34.834;2023-11-21T05:05:30;4.82;;;1.35;;
75937;SDS011;64615;32.062;34.834;2023-11-21T05:07:56;5.45;;;1.48;;
75937;SDS011;64615;32.062;34.834;2023-11-21T05:10:21;5.72;;;1.30;;
75937;SDS011;64615;32.062;34.834;2023-11-21T05:12:47;7.10;;;1.40;;
75937;SDS011;64615;32.062;34.834;2023-11-21T05:15:15;6.82;;;1.52;;
75937;SDS011;64615;32.062;34.834;2023-11-21T05:17:44;4.88;;;1.40;;
75937;SDS011;64615;32.062;34.834;2023-11-21T05:20:11;10.38;;;1.80;;
75937;SDS011;64615;32.062;34.834;2023-11-21T05:22:38;10.02;;;1.92;;
75937;SDS011;64615;32.062;34.834;2023-11-21T05:25:04;7.63;;;1.58;;
75937;SDS011;64615;32.062;34.834;2023-11-21T05:27:30;6.20;;;1.55;;
75937;SDS011;64615;32.062;34.834;2023-11-21T05:29:56;6.40;;;1.38;;
75937;SDS011;64615;32.062;34.834;2023-11-21T05:32:23;10.90;;;1.90;;
75937;SDS011;64615;32.062;34.834;2023-11-21T05:34:49;9.45;;;1.60;;
75937;SDS011;64615;32.062;34.834;2023-11-21T05:37:15;11.02;;;1.70;;
75937;SDS011;64615;32.062;34.834;2023-11-21T05:39:40;9.50;;;1.90;;
75937;SDS011;64615;32.062;34.834;2023-11-21T05:42:06;12.98;;;1.80;;
75937;SDS011;64615;32.062;34.834;2023-11-21T05:44:34;11.43;;;1.73;;
75937;SDS011;64615;32.062;34.834;2023-11-21T05:47:00;7.88;;;1.83;;
75937;SDS011;64615;32.062;34.834;2023-11-21T05:49:25;11.48;;;1.83;;
75937;SDS011;64615;32.062;34.834;2023-11-21T05:51:52;10.60;;;2.30;;
75937;SDS011;64615;32.062;34.834;2023-11-21T05:54:19;15.48;;;2.30;;
75937;SDS011;64615;32.062;34.834;2023-11-21T05:56:45;12.50;;;2.20;;
75937;SDS011;64615;32.062;34.834;2023-11-21T05:59:12;17.70;;;2.90;;
75937;SDS011;64615;32.062;34.834;2023-11-21T06:01:37;17.17;;;2.15;;
75937;SDS011;64615;32.062;34.834;2023-11-21T06:04:04;17.27;;;2.78;;
75937;SDS011;64615;32.062;34.834;2023-11-21T06:06:30;16.38;;;2.60;;
75937;SDS011;64615;32.062;34.834;2023-11-21T06:08:56;17.08;;;2.85;;
75937;SDS011;64615;32.062;34.834;2023-11-21T06:11:22;19.55;;;2.47;;
75937;SDS011;64615;32.062;34.834;2023-11-21T06:13:49;18.67;;;2.65;;
75937;SDS011;64615;32.062;34.834;2023-11-21T06:16:15;17.35;;;2.65;;
75937;SDS011;64615;32.062;34.834;2023-11-21T06:18:44;23.38;;;3.03;;
75937;SDS011;64615;32.062;34.834;2023-11-21T06:21:10;18.05;;;2.40;;
75937;SDS011;64615;32.062;34.834;2023-11-21T06:23:36;17.55;;;2.50;;
75937;SDS011;64615;32.062;34.834;2023-11-21T06:26:02;12.82;;;2.55;;
75937;SDS011;64615;32.062;34.834;2023-11-21T06:28:29;20.95;;;2.50;;
75937;SDS011;64615;32.062;34.834;2023-11-21T06:30:55;16.25;;;2.13;;
75937;SDS011;64615;32.062;34.834;2023-11-21T06:33:23;18.85;;;2.88;;
75937;SDS011;64615;32.062;34.834;2023-11-21T06:35:48;14.45;;;2.78;;
75937;SDS011;64615;32.062;34.834;2023-11-21T06:38:14;15.07;;;2.40;;
75937;SDS011;64615;32.062;34.834;2023-11-21T06:40:40;14.60;;;2.67;;
75937;SDS011;64615;32.062;34.834;2023-11-21T06:43:06;10.90;;;2.33;;
75937;SDS011;64615;32.062;34.834;2023-11-21T06:45:32;13.25;;;2.45;;
75937;SDS011;64615;32.062;34.834;2023-11-21T06:47:59;14.98;;;2.92;;
75937;SDS011;64615;32.062;34.834;2023-11-21T06:50:25;15.23;;;2.92;;
75937;SDS011;64615;32.062;34.834;2023-11-21T06:52:51;14.07;;;2.25;;
75937;SDS011;64615;32.062;34.834;2023-11-21T06:55:17;12.30;;;2.60;;
75937;SDS011;64615;32.062;34.834;2023-11-21T06:57:42;16.00;;;2.40;;
75937;SDS011;64615;32.062;34.834;2023-11-21T07:00:10;10.82;;;2.10;;
75937;SDS011;64615;32.062;34.834;2023-11-21T07:02:36;19.98;;;2.80;;
75937;SDS011;64615;32.062;34.834;2023-11-21T07:05:03;18.60;;;2.95;;
75937;SDS011;64615;32.062;34.834;2023-11-21T07:07:29;14.00;;;2.70;;
75937;SDS011;64615;32.062;34.834;2023-11-21T07:09:54;14.45;;;2.78;;
75937;SDS011;64615;32.062;34.834;2023-11-21T07:12:20;12.45;;;2.10;;
75937;SDS011;64615;32.062;34.834;2023-11-21T07:17:14;10.68;;;2.30;;
75937;SDS011;64615;32.062;34.834;2023-11-21T07:19:40;12.63;;;2.20;;
75937;SDS011;64615;32.062;34.834;2023-11-21T07:22:06;10.90;;;2.17;;
75937;SDS011;64615;32.062;34.834;2023-11-21T07:24:33;12.30;;;2.40;;
75937;SDS011;64615;32.062;34.834;2023-11-21T07:26:59;13.35;;;2.40;;
75937;SDS011;64615;32.062;34.834;2023-11-21T07:29:26;11.18;;;2.40;;
75937;SDS011;64615;32.062;34.834;2023-11-21T07:31:54;10.85;;;2.72;;
75937;SDS011;64615;32.062;34.834;2023-11-21T07:34:20;10.90;;;2.50;;
75937;SDS011;64615;32.062;34.834;2023-11-21T07:36:46;10.52;;;2.17;;
75937;SDS011;64615;32.062;34.834;2023-11-21T07:39:12;10.50;;;2.30;;
75937;SDS011;64615;32.062;34.834;2023-11-21T07:41:37;7.85;;;2.00;;
75937;SDS011;64615;32.062;34.834;2023-11-21T07:44:10;11.27;;;2.20;;
75937;SDS011;64615;32.062;34.834;2023-11-21T07:46:35;11.35;;;2.38;;
75937;SDS011;64615;32.062;34.834;2023-11-21T07:49:01;9.05;;;2.17;;
75937;SDS011;64615;32.062;34.834;2023-11-21T07:51:27;7.75;;;2.42;;
75937;SDS011;64615;32.062;34.834;2023-11-21T07:53:53;11.50;;;2.40;;
75937;SDS011;64615;32.062;34.834;2023-11-21T07:56:19;11.07;;;2.20;;
75937;SDS011;64615;32.062;34.834;2023-11-21T07:58:45;8.93;;;2.22;;
75937;SDS011;64615;32.062;34.834;2023-11-21T08:01:10;8.15;;;2.10;;
75937;SDS011;64615;32.062;34.834;2023-11-21T08:03:36;6.68;;;2.20;;
75937;SDS011;64615;32.062;34.834;2023-11-21T08:06:02;9.65;;;2.33;;
75937;SDS011;64615;32.062;34.834;2023-11-21T08:08:31;8.85;;;2.15;;
75937;SDS011;64615;32.062;34.834;2023-11-21T08:10:57;12.55;;;2.28;;
75937;SDS011;64615;32.062;34.834;2023-11-21T08:13:23;10.27;;;2.30;;
75937;SDS011;64615;32.062;34.834;2023-11-21T08:15:49;8.95;;;1.85;;
75937;SDS011;64615;32.062;34.834;2023-11-21T08:18:15;8.40;;;2.08;;
75937;SDS011;64615;32.062;34.834;2023-11-21T08:20:42;8.63;;;2.08;;
75937;SDS011;64615;32.062;34.834;2023-11-21T08:23:08;10.55;;;2.10;;
75937;SDS011;64615;32.062;34.834;2023-11-21T08:25:34;10.73;;;2.38;;
75937;SDS011;64615;32.062;34.834;2023-11-21T08:28:00;11.73;;;2.38;;
75937;SDS011;64615;32.062;34.834;2023-11-21T08:30:26;12.95;;;2.42;;
75937;SDS011;64615;32.062;34.834;2023-11-21T08:32:55;7.65;;;1.90;;
75937;SDS011;64615;32.062;34.834;2023-11-21T08:37:50;8.70;;;1.75;;
75937;SDS011;64615;32.062;34.834;2023-11-21T08:40:17;7.80;;;1.88;;
75937;SDS011;64615;32.062;34.834;2023-11-21T08:42:44;10.25;;;2.15;;
75937;SDS011;64615;32.062;34.834;2023-11-21T08:45:11;8.05;;;2.33;;
75937;SDS011;64615;32.062;34.834;2023-11-21T08:47:38;8.40;;;2.25;;
75937;SDS011;64615;32.062;34.834;2023-11-21T08:50:05;9.77;;;2.33;;
75937;SDS011;64615;32.062;34.834;2023-11-21T08:52:33;8.55;;;2.00;;
75937;SDS011;64615;32.062;34.834;2023-11-21T08:54:59;9.35;;;2.30;;
75937;SDS011;64615;32.062;34.834;2023-11-21T08:57:28;9.75;;;2.10;;
75937;SDS011;64615;32.062;34.834;2023-11-21T08:59:54;8.52;;;1.98;;
75937;SDS011;64615;32.062;34.834;2023-11-21T09:02:22;10.45;;;2.17;;
75937;SDS011;64615;32.062;34.834;2023-11-21T09:04:48;8.35;;;1.95;;
75937;SDS011;64615;32.062;34.834;2023-11-21T09:07:15;7.40;;;1.92;;
75937;SDS011;64615;32.062;34.834;2023-11-21T09:09:41;7.32;;;1.70;;
75937;SDS011;64615;32.062;34.834;2023-11-21T09:12:07;7.30;;;2.08;;
75937;SDS011;64615;32.062;34.834;2023-11-21T09:14:32;6.18;;;1.90;;
75937;SDS011;64615;32.062;34.834;2023-11-21T09:16:59;7.63;;;1.88;;
75937;SDS011;64615;32.062;34.834;2023-11-21T09:19:24;9.30;;;2.15;;
75937;SDS011;64615;32.062;34.834;2023-11-21T09:21:50;8.20;;;2.00;;
75937;SDS011;64615;32.062;34.834;2023-11-21T09:24:16;7.28;;;1.90;;
75937;SDS011;64615;32.062;34.834;2023-11-21T09:26:41;8.27;;;2.03;;
75937;SDS011;64615;32.062;34.834;2023-11-21T09:29:07;7.30;;;1.90;;
75937;SDS011;64615;32.062;34.834;2023-11-21T09:31:33;5.95;;;1.63;;
75937;SDS011;64615;32.062;34.834;2023-11-21T09:33:59;5.63;;;1.65;;
75937;SDS011;64615;32.062;34.834;2023-11-21T09:36:24;10.68;;;2.10;;
75937;SDS011;64615;32.062;34.834;2023-11-21T09:38:53;6.75;;;1.80;;
75937;SDS011;64615;32.062;34.834;2023-11-21T09:44:38;6.70;;;1.80;;
75937;SDS011;64615;32.062;34.834;2023-11-21T09:47:14;5.35;;;1.55;;
75937;SDS011;64615;32.062;34.834;2023-11-21T09:49:42;7.13;;;1.98;;
75937;SDS011;64615;32.062;34.834;2023-11-21T09:52:13;7.13;;;1.83;;
75937;SDS011;64615;32.062;34.834;2023-11-21T09:54:49;5.45;;;1.52;;
75937;SDS011;64615;32.062;34.834;2023-11-21T09:57:16;5.95;;;1.70;;
75937;SDS011;64615;32.062;34.834;2023-11-21T09:59:44;6.22;;;1.75;;
75937;SDS011;64615;32.062;34.834;2023-11-21T10:02:12;5.47;;;2.05;;
75937;SDS011;64615;32.062;34.834;2023-11-21T10:04:38;7.40;;;1.75;;
75937;SDS011;64615;32.062;34.834;2023-11-21T10:07:05;8.10;;;2.10;;
75937;SDS011;64615;32.062;34.834;2023-11-21T10:09:35;8.85;;;1.70;;
75937;SDS011;64615;32.062;34.834;2023-11-21T10:12:03;8.73;;;1.92;;
75937;SDS011;64615;32.062;34.834;2023-11-21T10:14:34;7.53;;;1.85;;
75937;SDS011;64615;32.062;34.834;2023-11-21T10:17:02;5.82;;;1.80;;
75937;SDS011;64615;32.062;34.834;2023-11-21T10:19:28;7.22;;;1.65;;
75937;SDS011;64615;32.062;34.834;2023-11-21T10:21:55;6.78;;;1.60;;
75937;SDS011;64615;32.062;34.834;2023-11-21T10:24:22;6.47;;;1.80;;
75937;SDS011;64615;32.062;34.834;2023-11-21T10:26:48;6.90;;;1.67;;
75937;SDS011;64615;32.062;34.834;2023-11-21T10:29:16;5.18;;;1.33;;
75937;SDS011;64615;32.062;34.834;2023-11-21T10:31:48;4.22;;;1.20;;
75937;SDS011;64615;32.062;34.834;2023-11-21T10:34:15;5.38;;;1.48;;
75937;SDS011;64615;32.062;34.834;2023-11-21T10:36:42;5.85;;;1.33;;
75937;SDS011;64615;32.062;34.834;2023-11-21T10:39:08;7.22;;;1.67;;
75937;SDS011;64615;32.062;34.834;2023-11-21T10:41:35;6.78;;;1.60;;
75937;SDS011;64615;32.062;34.834;2023-11-21T10:44:04;6.65;;;1.77;;
75937;SDS011;64615;32.062;34.834;2023-11-21T10:46:31;6.15;;;1.70;;
75937;SDS011;64615;32.062;34.834;2023-11-21T10:48:57;6.43;;;1.88;;
75937;SDS011;64615;32.062;34.834;2023-11-21T10:51:23;7.45;;;1.70;;
75937;SDS011;64615;32.062;34.834;2023-11-21T10:53:51;6.85;;;2.17;;
75937;SDS011;64615;32.062;34.834;2023-11-21T10:56:18;5.38;;;1.52;;
75937;SDS011;64615;32.062;34.834;2023-11-21T10:58:47;4.78;;;1.73;;
75937;SDS011;64615;32.062;34.834;2023-11-21T11:01:14;6.75;;;1.48;;
75937;SDS011;64615;32.062;34.834;2023-11-21T11:03:42;6.68;;;1.70;;
75937;SDS011;64615;32.062;34.834;2023-11-21T11:06:09;6.50;;;1.70;;
75937;SDS011;64615;32.062;34.834;2023-11-21T11:08:40;5.18;;;1.52;;
75937;SDS011;64615;32.062;34.834;2023-11-21T11:11:06;6.38;;;1.90;;
75937;SDS011;64615;32.062;34.834;2023-11-21T11:13:32;8.18;;;2.00;;
75937;SDS011;64615;32.062;34.834;2023-11-21T11:15:58;6.43;;;1.70;;
75937;SDS011;64615;32.062;34.834;2023-11-21T11:18:25;7.00;;;1.98;;
75937;SDS011;64615;32.062;34.834;2023-11-21T11:20:51;8.45;;;1.90;;
75937;SDS011;64615;32.062;34.834;2023-11-21T11:28:40;10.05;;;2.30;;
75937;SDS011;64615;32.062;34.834;2023-11-21T11:36:44;7.35;;;2.08;;
75937;SDS011;64615;32.062;34.834;2023-11-21T11:39:27;7.10;;;1.90;;
75937;SDS011;64615;32.062;34.834;2023-11-21T11:41:55;8.60;;;2.20;;
75937;SDS011;64615;32.062;34.834;2023-11-21T11:50:02;7.00;;;1.75;;
75937;SDS011;64615;32.062;34.834;2023-11-21T11:52:34;7.93;;;1.83;;
75937;SDS011;64615;32.062;34.834;2023-11-21T11:55:00;8.45;;;1.80;;
75937;SDS011;64615;32.062;34.834;2023-11-21T11:57:29;7.20;;;1.77;;
75937;SDS011;64615;32.062;34.834;2023-11-21T12:00:16;4.85;;;1.48;;
75937;SDS011;64615;32.062;34.834;2023-11-21T12:02:59;7.75;;;1.77;;
75937;SDS011;64615;32.062;34.834;2023-11-21T12:05:28;6.30;;;1.73;;
75937;SDS011;64615;32.062;34.834;2023-11-21T12:07:58;5.50;;;1.75;;
75937;SDS011;64615;32.062;34.834;2023-11-21T12:10:26;5.57;;;1.50;;
75937;SDS011;64615;32.062;34.834;2023-11-21T12:12:57;4.78;;;1.60;;
75937;SDS011;64615;32.062;34.834;2023-11-21T12:15:24;6.05;;;1.50;;
75937;SDS011;64615;32.062;34.834;2023-11-21T12:17:52;4.72;;;1.30;;
75937;SDS011;64615;32.062;34.834;2023-11-21T12:20:19;4.75;;;1.50;;
75937;SDS011;64615;32.062;34.834;2023-11-21T12:22:49;7.15;;;1.58;;
75937;SDS011;64615;32.062;34.834;2023-11-21T12:25:18;5.18;;;1.50;;
75937;SDS011;64615;32.062;34.834;2023-11-21T12:27:46;7.10;;;1.60;;
75937;SDS011;64615;32.062;34.834;2023-11-21T12:30:17;7.05;;;1.65;;
75937;SDS011;64615;32.062;34.834;2023-11-21T12:32:44;5.03;;;1.30;;
75937;SDS011;64615;32.062;34.834;2023-11-21T12:35:12;5.32;;;1.40;;
75937;SDS011;64615;32.062;34.834;2023-11-21T12:37:38;6.32;;;1.70;;
75937;SDS011;64615;32.062;34.834;2023-11-21T12:40:05;4.60;;;1.40;;
75937;SDS011;64615;32.062;34.834;2023-11-21T12:42:43;4.93;;;1.60;;
75937;SDS011;64615;32.062;34.834;2023-11-21T12:47:43;5.63;;;1.30;;
75937;SDS011;64615;32.062;34.834;2023-11-21T12:50:10;4.50;;;1.42;;
75937;SDS011;64615;32.062;34.834;2023-11-21T12:52:45;3.95;;;1.20;;
75937;SDS011;64615;32.062;34.834;2023-11-21T12:55:17;4.32;;;1.42;;
75937;SDS011;64615;32.062;34.834;2023-11-21T12:57:47;4.43;;;1.42;;
75937;SDS011;64615;32.062;34.834;2023-11-21T13:00:16;3.22;;;1.20;;
75937;SDS011;64615;32.062;34.834;2023-11-21T13:02:55;3.10;;;1.13;;
75937;SDS011;64615;32.062;34.834;2023-11-21T13:05:28;5.28;;;1.55;;
75937;SDS011;64615;32.062;34.834;2023-11-21T13:07:58;6.85;;;1.38;;
75937;SDS011;64615;32.062;34.834;2023-11-21T13:10:29;3.95;;;1.20;;
75937;SDS011;64615;32.062;34.834;2023-11-21T13:13:00;4.10;;;1.27;;
75937;SDS011;64615;32.062;34.834;2023-11-21T13:15:30;3.83;;;1.27;;
75937;SDS011;64615;32.062;34.834;2023-11-21T13:17:57;7.03;;;1.33;;
75937;SDS011;64615;32.062;34.834;2023-11-21T13:20:24;5.28;;;1.40;;
75937;SDS011;64615;32.062;34.834;2023-11-21T13:22:51;4.05;;;1.15;;
75937;SDS011;64615;32.062;34.834;2023-11-21T13:25:30;5.00;;;1.20;;
75937;SDS011;64615;32.062;34.834;2023-11-21T13:27:57;3.72;;;1.20;;
75937;SDS011;64615;32.062;34.834;2023-11-21T13:30:27;5.97;;;1.38;;
75937;SDS011;64615;32.062;34.834;2023-11-21T13:33:00;3.92;;;1.30;;
75937;SDS011;64615;32.062;34.834;2023-11-21T13:35:27;4.85;;;1.25;;
75937;SDS011;64615;32.062;34.834;2023-11-21T13:38:17;3.00;;;1.10;;
75937;SDS011;64615;32.062;34.834;2023-11-21T13:40:48;4.53;;;1.50;;
75937;SDS011;64615;32.062;34.834;2023-11-21T13:43:19;3.25;;;1.15;;
75937;SDS011;64615;32.062;34.834;2023-11-21T13:45:47;4.43;;;1.10;;
75937;SDS011;64615;32.062;34.834;2023-11-21T13:48:16;6.57;;;1.50;;
75937;SDS011;64615;32.062;34.834;2023-11-21T13:50:50;3.58;;;1.15;;
75937;SDS011;64615;32.062;34.834;2023-11-21T13:53:33;3.45;;;1.00;;
75937;SDS011;64615;32.062;34.834;2023-11-21T13:56:02;5.32;;;1.23;;
75937;SDS011;64615;32.062;34.834;2023-11-21T13:58:28;5.57;;;1.10;;
75937;SDS011;64615;32.062;34.834;2023-11-21T14:01:11;2.45;;;1.00;;
75937;SDS011;64615;32.062;34.834;2023-11-21T14:04:04;3.20;;;1.15;;
75937;SDS011;64615;32.062;34.834;2023-11-21T14:06:48;4.70;;;1.10;;
75937;SDS011;64615;32.062;34.834;2023-11-21T14:09:18;5.15;;;1.20;;
75937;SDS011;64615;32.062;34.834;2023-11-21T14:11:54;2.17;;;0.95;;
75937;SDS011;64615;32.062;34.834;2023-11-21T14:14:23;3.85;;;0.82;;
75937;SDS011;64615;32.062;34.834;2023-11-21T14:16:55;3.72;;;1.10;;
75937;SDS011;64615;32.062;34.834;2023-11-21T14:19:23;3.60;;;1.05;;
75937;SDS011;64615;32.062;34.834;2023-11-21T14:21:55;4.43;;;1.00;;
75937;SDS011;64615;32.062;34.834;2023-11-21T14:24:21;3.47;;;1.00;;
75937;SDS011;64615;32.062;34.834;2023-11-21T14:26:48;4.95;;;1.17;;
75937;SDS011;64615;32.062;34.834;2023-11-21T14:29:17;3.42;;;1.02;;
75937;SDS011;64615;32.062;34.834;2023-11-21T14:31:48;2.75;;;1.00;;
75937;SDS011;64615;32.062;34.834;2023-11-21T14:34:16;3.58;;;1.00;;
75937;SDS011;64615;32.062;34.834;2023-11-21T14:36:42;3.38;;;1.00;;
75937;SDS011;64615;32.062;34.834;2023-11-21T14:39:09;6.00;;;1.02;;
75937;SDS011;64615;32.062;34.834;2023-11-21T14:41:41;3.30;;;1.10;;
75937;SDS011;64615;32.062;34.834;2023-11-21T14:44:08;3.35;;;0.95;;
75937;SDS011;64615;32.062;34.834;2023-11-21T14:49:04;3.30;;;0.88;;
75937;SDS011;64615;32.062;34.834;2023-11-21T14:51:50;3.65;;;0.98;;
75937;SDS011;64615;32.062;34.834;2023-11-21T14:54:31;5.72;;;1.13;;
75937;SDS011;64615;32.062;34.834;2023-11-21T14:57:05;3.58;;;0.90;;
75937;SDS011;64615;32.062;34.834;2023-11-21T14:59:36;3.00;;;0.90;;
75937;SDS011;64615;32.062;34.834;2023-11-21T15:02:02;3.33;;;0.90;;